Time;durP1;ratioP1;P1;durP2;ratioP2;P2;SDS_P1;SDS_P2;PMS_P1;PMS_P2;Temp;Humidity;BMP_temperature;BMP_pressure;BME280_temperature;BME280_humidity;BME280_pressure;Samples;Min_cycle;Max_cycle;Signal;HPM_P1;HPM_P2
2022/04/22 00:00:09;;;;;;;2.97;2.78;;;;;;;8.92;67.85;97534.44;4085341;28;20961;-57
2022/04/22 00:02:11;;;;;;;2.42;2.15;;;;;;;8.97;67.32;97534.47;4085375;29;20667;-56
2022/04/22 00:04:13;;;;;;;2.55;2.35;;;;;;;9.01;67.06;97535.59;4091179;29;20211;-57
2022/04/22 00:06:15;;;;;;;1.90;1.80;;;;;;;9.01;67.02;97538.34;4087493;29;20243;-57
2022/04/22 00:08:17;;;;;;;3.15;2.85;;;;;;;9.06;66.79;97536.44;4118502;28;20210;-57
2022/04/22 00:10:19;;;;;;;2.80;2.60;;;;;;;8.99;67.33;97538.59;4071271;29;20208;-57
2022/04/22 00:12:21;;;;;;;3.13;2.83;;;;;;;8.91;67.33;97533.63;4098654;28;20674;-57
2022/04/22 00:14:22;;;;;;;2.78;2.58;;;;;;;8.93;67.41;97536.06;4083939;28;20911;-56
2022/04/22 00:16:25;;;;;;;2.60;2.40;;;;;;;8.91;67.23;97530.06;4115115;28;20234;-57
2022/04/22 00:18:27;;;;;;;3.00;2.80;;;;;;;8.92;66.92;97531.72;4085149;28;20876;-55
2022/04/22 00:20:29;;;;;;;3.63;2.97;;;;;;;8.84;67.78;97526.75;4093957;28;20830;-57
2022/04/22 00:22:30;;;;;;;3.20;2.90;;;;;;;8.78;67.87;97527.81;4088236;29;20281;-57
2022/04/22 00:24:32;;;;;;;2.42;2.25;;;;;;;8.84;67.41;97526.75;4097962;28;20215;-56
2022/04/22 00:26:34;;;;;;;3.30;3.00;;;;;;;8.92;67.06;97527.09;4089242;28;20223;-55
2022/04/22 00:28:36;;;;;;;3.30;3.05;;;;;;;8.64;68.55;97526.63;4084510;28;20219;-56
2022/04/22 00:30:38;;;;;;;3.08;2.78;;;;;;;8.68;67.87;97527.75;4085732;29;20207;-56
2022/04/22 00:32:40;;;;;;;2.60;2.40;;;;;;;8.74;67.58;97526.72;4082965;29;20258;-56
2022/04/22 00:34:41;;;;;;;3.08;2.83;;;;;;;8.70;67.60;97531.84;4097918;28;20206;-57
2022/04/22 00:36:43;;;;;;;3.33;2.83;;;;;;;8.67;68.06;97531.53;4086496;28;20339;-57
2022/04/22 00:38:45;;;;;;;3.25;2.70;;;;;;;8.59;68.25;97534.75;4086147;28;20238;-56
2022/04/22 00:40:47;;;;;;;3.53;3.25;;;;;;;8.48;68.59;97538.50;4083766;29;21083;-56
2022/04/22 00:42:48;;;;;;;3.53;3.22;;;;;;;8.61;68.03;97535.34;4083419;29;20661;-55
2022/04/22 00:44:50;;;;;;;3.47;3.28;;;;;;;8.50;68.32;97530.88;4114861;28;20234;-56
2022/04/22 00:46:52;;;;;;;3.97;3.45;;;;;;;8.54;68.09;97521.09;4082605;28;20263;-56
2022/04/22 00:48:53;;;;;;;3.67;3.38;;;;;;;8.48;68.90;97516.69;4099123;28;20297;-56
2022/04/22 00:50:55;;;;;;;3.45;3.03;;;;;;;8.58;68.46;97522.22;4085374;29;20285;-56
2022/04/22 00:52:57;;;;;;;4.45;3.97;;;;;;;8.49;68.75;97518.34;4082975;28;20208;-55
2022/04/22 00:54:59;;;;;;;3.45;3.22;;;;;;;8.49;68.60;97510.16;4084692;29;20223;-56
2022/04/22 00:57:00;;;;;;;2.85;2.65;;;;;;;8.47;68.36;97515.03;4083467;29;20203;-55
2022/04/22 00:59:03;;;;;;;8.98;2.90;;;;;;;8.30;68.66;97508.91;4094672;28;20211;-55
2022/04/22 01:01:06;;;;;;;3.70;3.40;;;;;;;8.30;69.42;97508.91;4086953;28;20315;-56
2022/04/22 01:03:08;;;;;;;2.83;2.55;;;;;;;8.35;69.08;97507.03;4079936;29;20212;-57
2022/04/22 01:09:51;;;;;;;3.58;3.17;;;;;;;8.19;69.32;97496.25;4087206;29;20267;-55
2022/04/22 01:11:53;;;;;;;3.88;3.55;;;;;;;8.18;69.29;97500.88;4116775;28;20218;-56
2022/04/22 01:13:55;;;;;;;3.42;3.03;;;;;;;8.17;69.39;97492.97;4090588;29;20345;-56
2022/04/22 01:15:57;;;;;;;4.28;3.88;;;;;;;8.14;69.60;97490.75;4119475;28;20608;-56
2022/04/22 01:17:59;;;;;;;3.13;2.55;;;;;;;8.27;69.26;97493.06;4090477;29;20220;-56
2022/04/22 01:20:02;;;;;;;4.13;3.83;;;;;;;8.16;69.52;97488.59;4089281;29;20207;-57
2022/04/22 01:22:05;;;;;;;4.07;3.63;;;;;;;8.21;69.19;97488.69;4087023;29;20670;-57
2022/04/22 01:24:07;;;;;;;3.50;3.20;;;;;;;8.22;68.93;97474.78;4089437;29;20208;-56
2022/04/22 01:26:09;;;;;;;3.33;3.03;;;;;;;8.31;68.51;97478.69;4119593;28;20229;-56
2022/04/22 01:28:11;;;;;;;5.05;4.28;;;;;;;8.22;69.46;97479.44;4103389;28;20211;-56
2022/04/22 01:30:12;;;;;;;3.45;3.25;;;;;;;8.18;69.11;97475.53;4089412;29;20235;-58
2022/04/22 01:32:14;;;;;;;4.10;3.80;;;;;;;8.08;69.77;97470.03;4089384;28;20215;-58
2022/04/22 01:34:16;;;;;;;8.98;3.33;;;;;;;8.19;69.37;97467.13;4088987;29;20251;-57
2022/04/22 01:36:18;;;;;;;4.53;4.15;;;;;;;8.28;68.87;97472.94;4093552;29;20219;-59
2022/04/22 01:38:19;;;;;;;4.40;4.00;;;;;;;8.25;68.96;97468.00;4121170;28;20213;-58
2022/04/22 01:40:21;;;;;;;3.25;3.05;;;;;;;8.16;69.14;97469.53;4119852;28;20351;-56
2022/04/22 01:42:23;;;;;;;4.40;3.97;;;;;;;8.14;69.00;97468.94;4088741;29;20279;-56
2022/04/22 01:44:26;;;;;;;3.40;3.10;;;;;;;8.22;69.50;97468.53;4118675;28;20205;-59
2022/04/22 01:46:27;;;;;;;3.92;3.58;;;;;;;8.01;69.69;97469.41;4089732;28;20250;-60
2022/04/22 01:48:30;;;;;;;3.30;2.88;;;;;;;8.04;70.15;97466.16;4105570;28;20222;-59
2022/04/22 01:50:32;;;;;;;4.82;4.43;;;;;;;7.98;70.13;97450.84;4100373;28;20221;-56
2022/04/22 01:52:39;;;;;;;5.07;4.57;;;;;;;8.03;69.26;97459.88;4118573;28;20716;-57
2022/04/22 01:54:40;;;;;;;4.95;4.55;;;;;;;8.14;69.04;97458.06;4103313;28;20620;-57
2022/04/22 01:56:42;;;;;;;3.38;3.13;;;;;;;7.90;70.38;97454.84;4093844;28;20318;-57
2022/04/22 01:58:44;;;;;;;4.63;4.22;;;;;;;7.83;70.26;97450.72;4102522;28;20278;-57
2022/04/22 02:00:46;;;;;;;3.83;3.53;;;;;;;7.98;69.58;97451.69;4088935;28;20208;-56
2022/04/22 02:02:47;;;;;;;5.07;4.68;;;;;;;7.92;69.97;97452.72;4103026;28;20210;-58
2022/04/22 02:04:49;;;;;;;5.10;4.57;;;;;;;7.98;70.03;97445.41;4090939;29;20207;-57
2022/04/22 02:06:51;;;;;;;4.50;4.15;;;;;;;8.02;69.27;97443.81;4104346;28;20219;-58
2022/04/22 02:08:52;;;;;;;4.85;3.70;;;;;;;7.90;70.00;97454.06;4092831;29;20235;-58
2022/04/22 02:10:54;;;;;;;4.57;4.03;;;;;;;7.96;70.18;97448.38;4083883;29;20220;-57
2022/04/22 02:12:56;;;;;;;3.47;3.17;;;;;;;7.79;70.15;97441.41;4085694;28;20263;-58
2022/04/22 02:14:57;;;;;;;4.55;4.05;;;;;;;7.85;70.16;97441.22;4085732;29;20251;-57
2022/04/22 02:17:00;;;;;;;4.95;4.53;;;;;;;7.94;69.80;97444.25;4087585;29;20226;-57
2022/04/22 02:19:04;;;;;;;4.05;3.67;;;;;;;7.99;69.77;97438.88;4100415;28;20216;-57
2022/04/22 02:21:06;;;;;;;4.60;4.20;;;;;;;7.92;69.38;97441.00;4086563;29;20207;-56
2022/04/22 02:23:08;;;;;;;4.55;3.75;;;;;;;8.00;69.47;97437.78;4100749;28;20270;-59
2022/04/22 02:25:09;;;;;;;5.18;4.55;;;;;;;8.04;69.01;97428.03;4090883;28;20342;-58
2022/04/22 02:29:31;;;;;;;4.93;4.53;;;;;;;8.07;68.27;97430.22;4087963;29;20207;-56
2022/04/22 02:31:33;;;;;;;5.30;4.80;;;;;;;8.10;68.49;97433.22;4090150;29;20214;-58
2022/04/22 02:33:38;;;;;;;4.82;4.32;;;;;;;8.09;68.38;97436.25;4088503;28;20331;-56
2022/04/22 02:35:39;;;;;;;4.55;4.20;;;;;;;8.09;68.07;97428.06;4084522;28;20693;-59
2022/04/22 02:37:41;;;;;;;4.93;4.53;;;;;;;8.06;67.87;97429.41;4089377;29;21066;-57
2022/04/22 02:39:43;;;;;;;6.43;4.05;;;;;;;8.06;67.97;97423.13;4088813;29;20908;-58
2022/04/22 02:46:37;;;;;;;4.53;3.78;;;;;;;7.96;67.77;97414.88;4071770;29;20232;-56
2022/04/22 02:48:39;;;;;;;4.03;3.53;;;;;;;7.92;67.95;97413.75;4090109;28;20300;-56
2022/04/22 02:50:40;;;;;;;3.40;3.15;;;;;;;7.90;68.04;97411.28;4108165;28;20214;-59
2022/04/22 02:52:42;;;;;;;5.47;4.97;;;;;;;7.87;67.79;97405.53;4103364;28;20732;-59
2022/04/22 02:54:44;;;;;;;6.43;4.65;;;;;;;7.87;67.99;97405.53;4087441;28;20203;-58
2022/04/22 02:56:45;;;;;;;4.22;3.83;;;;;;;7.81;67.31;97406.59;4119868;28;20198;-59
2022/04/22 02:58:47;;;;;;;5.85;5.28;;;;;;;7.79;67.49;97408.75;4119356;28;20212;-62
2022/04/22 03:00:49;;;;;;;3.95;3.65;;;;;;;7.77;67.59;97400.03;4090965;28;20208;-56
2022/04/22 03:02:51;;;;;;;4.57;4.18;;;;;;;7.75;67.78;97402.19;4086083;29;20255;-59
2022/04/22 03:04:53;;;;;;;5.70;5.13;;;;;;;7.70;67.70;97404.88;4085743;29;20259;-57
2022/04/22 03:06:56;;;;;;;6.03;5.53;;;;;;;7.69;67.35;97404.03;4088194;29;20244;-59
2022/04/22 03:08:58;;;;;;;5.32;4.88;;;;;;;7.66;67.27;97404.56;4090834;29;20207;-58
2022/04/22 03:11:00;;;;;;;5.63;4.78;;;;;;;7.61;67.76;97404.50;4090159;28;20601;-57
2022/04/22 03:13:03;;;;;;;5.07;4.68;;;;;;;7.56;67.37;97403.66;4102274;28;20203;-59
2022/04/22 03:15:05;;;;;;;5.82;5.18;;;;;;;7.51;68.00;97400.88;4099707;28;20915;-57
2022/04/22 03:17:07;;;;;;;5.78;5.28;;;;;;;7.49;68.04;97398.41;4090143;28;20235;-58
2022/04/22 03:19:09;;;;;;;4.25;3.92;;;;;;;7.48;68.57;97393.25;4108610;28;20665;-57
2022/04/22 03:21:10;;;;;;;6.30;5.70;;;;;;;7.51;67.84;97395.44;4099897;28;20223;-60
2022/04/22 03:23:14;;;;;;;6.38;5.63;;;;;;;7.53;68.60;97409.59;4086406;29;20315;-58
2022/04/22 03:25:19;;;;;;;4.97;4.65;;;;;;;7.50;68.56;97399.22;4086490;28;20236;-58
2022/04/22 03:27:20;;;;;;;6.90;6.20;;;;;;;7.50;68.34;97394.59;4116954;28;20254;-57
2022/04/22 03:29:22;;;;;;;4.60;4.15;;;;;;;7.47;68.34;97399.72;4087346;29;20253;-59
2022/04/22 03:31:24;;;;;;;6.25;3.95;;;;;;;7.45;67.68;97396.47;4072014;29;21500;-58
2022/04/22 03:33:26;;;;;;;5.00;4.55;;;;;;;7.44;67.80;97400.25;4102864;28;20314;-58
2022/04/22 03:35:28;;;;;;;4.13;3.75;;;;;;;7.38;67.98;97396.69;4085404;29;20737;-58
2022/04/22 03:37:30;;;;;;;5.45;5.13;;;;;;;7.39;68.08;97392.03;4098547;28;20208;-61
2022/04/22 03:39:33;;;;;;;5.38;4.53;;;;;;;7.37;68.27;97386.03;4115799;28;20221;-58
2022/04/22 03:41:34;;;;;;;5.88;5.35;;;;;;;7.42;68.26;97386.91;4099435;28;20218;-57
2022/04/22 03:43:37;;;;;;;7.15;6.55;;;;;;;7.28;68.85;97395.75;4098564;28;20939;-58
2022/04/22 03:45:39;;;;;;;5.75;5.20;;;;;;;7.26;69.56;97389.72;4084059;28;20246;-57
2022/04/22 03:47:41;;;;;;;5.00;4.60;;;;;;;7.29;69.23;97391.97;4090700;29;20223;-57
2022/04/22 03:49:42;;;;;;;4.88;4.15;;;;;;;7.31;69.81;97387.06;4102967;28;20269;-57
2022/04/22 03:51:44;;;;;;;5.07;4.65;;;;;;;7.33;69.57;97388.47;4117948;28;20313;-56
2022/04/22 03:53:46;;;;;;;6.60;6.00;;;;;;;7.22;70.08;97392.16;4089108;29;20232;-58
2022/04/22 03:55:47;;;;;;;7.40;6.68;;;;;;;7.18;70.02;97384.75;4103271;28;20230;-58
2022/04/22 04:00:10;;;;;;;4.60;4.22;;;;;;;7.20;70.11;97382.59;4088205;29;20235;-60
2022/04/22 04:02:11;;;;;;;5.15;4.75;;;;;;;7.23;69.87;97380.19;4119759;28;20214;-57
2022/04/22 04:04:13;;;;;;;6.55;5.95;;;;;;;7.24;69.88;97383.72;4089603;29;20242;-56
2022/04/22 04:06:15;;;;;;;7.57;6.80;;;;;;;7.26;70.14;97381.56;4118764;28;20740;-57
2022/04/22 04:08:21;;;;;;;5.80;5.32;;;;;;;7.27;70.14;97383.22;4105069;28;20210;-59
2022/04/22 04:17:24;;;;;;;7.50;5.82;;;;;;;7.13;70.07;97376.53;4086192;28;20216;-56
2022/04/22 04:24:10;;;;;;;6.97;6.28;;;;;;;7.13;70.72;97365.66;4087115;29;20255;-60
2022/04/22 04:26:12;;;;;;;7.78;7.00;;;;;;;7.09;70.39;97369.97;4088330;29;20227;-55
2022/04/22 04:28:15;;;;;;;6.95;6.35;;;;;;;7.10;70.99;97372.44;4087688;29;20255;-57
2022/04/22 04:30:16;;;;;;;6.43;5.82;;;;;;;7.09;70.60;97378.16;4119486;28;20293;-57
2022/04/22 04:32:18;;;;;;;7.38;5.95;;;;;;;6.86;71.91;97375.69;4085309;29;20286;-60
2022/04/22 04:34:20;;;;;;;9.10;8.23;;;;;;;6.68;72.49;97382.28;4088702;29;20211;-58
2022/04/22 04:36:21;;;;;;;6.85;6.22;;;;;;;6.72;72.31;97379.88;4087370;29;20239;-56
2022/04/22 04:38:24;;;;;;;8.32;7.53;;;;;;;6.74;72.04;97377.72;4087984;28;20700;-57
2022/04/22 04:40:26;;;;;;;10.60;6.47;;;;;;;6.75;72.42;97373.94;4096545;28;20249;-57
2022/04/22 04:42:27;;;;;;;6.57;5.97;;;;;;;6.74;71.82;97372.28;4117778;28;20242;-57
2022/04/22 04:44:29;;;;;;;6.45;5.88;;;;;;;6.79;71.84;97377.78;4085335;29;20233;-58
2022/04/22 04:46:31;;;;;;;9.02;8.18;;;;;;;6.78;72.02;97373.44;4089276;28;20226;-58
2022/04/22 04:48:35;;;;;;;8.90;7.80;;;;;;;6.78;72.08;97376.16;4089434;28;20263;-60
2022/04/22 04:50:40;;;;;;;8.50;7.70;;;;;;;6.82;71.44;97367.22;4104104;28;20242;-58
2022/04/22 04:52:42;;;;;;;7.35;5.95;;;;;;;6.87;71.48;97366.47;4100506;28;20287;-60
2022/04/22 04:54:46;;;;;;;6.90;6.38;;;;;;;6.91;71.11;97362.16;4117601;28;20199;-58
2022/04/22 04:56:47;;;;;;;9.23;7.60;;;;;;;6.96;70.65;97364.94;4091394;29;20208;-59
2022/04/22 04:58:49;;;;;;;10.98;7.75;;;;;;;6.95;70.92;97368.75;4087599;28;20593;-58
2022/04/22 05:00:51;;;;;;;11.05;7.00;;;;;;;7.06;70.46;97367.75;4088942;29;20212;-58
2022/04/22 05:02:55;;;;;;;6.80;6.30;;;;;;;7.17;70.95;97372.25;4086316;29;20239;-58
2022/04/22 05:05:06;;;;;;;7.45;6.80;;;;;;;7.00;70.93;97380.50;4086400;29;20322;-58
2022/04/22 05:07:08;;;;;;;9.20;8.25;;;;;;;7.05;71.18;97377.00;4084498;29;20219;-60
2022/04/22 05:09:10;;;;;;;6.43;5.80;;;;;;;7.06;71.02;97374.03;4102016;28;20304;-58
2022/04/22 05:11:12;;;;;;;9.60;7.65;;;;;;;7.09;70.77;97375.44;4092010;28;20203;-56
2022/04/22 05:13:14;;;;;;;9.32;5.93;;;;;;;7.13;70.35;97377.38;4119929;28;20632;-59
2022/04/22 05:15:19;;;;;;;8.07;7.35;;;;;;;7.18;70.09;97384.75;4104740;28;20235;-56
2022/04/22 05:17:21;;;;;;;7.53;6.85;;;;;;;7.18;70.66;97384.75;4088771;28;20287;-56
2022/04/22 05:19:23;;;;;;;7.47;6.50;;;;;;;7.22;70.90;97391.34;4101868;28;20237;-56
2022/04/22 05:21:24;;;;;;;11.27;8.05;;;;;;;7.25;70.61;97391.66;4089497;29;20294;-62
2022/04/22 05:23:27;;;;;;;7.57;6.72;;;;;;;7.29;70.18;97389.22;4099321;28;20326;-56
2022/04/22 05:25:29;;;;;;;8.13;7.30;;;;;;;7.27;70.93;97394.94;4088133;29;20258;-56
2022/04/22 05:27:31;;;;;;;8.73;7.60;;;;;;;7.34;70.83;97383.81;4101713;28;20290;-55
2022/04/22 05:34:13;;;;;;;8.63;7.40;;;;;;;7.54;70.07;97378.56;4089852;29;20208;-56
2022/04/22 05:36:15;;;;;;;7.70;7.00;;;;;;;7.60;70.44;97366.66;4087448;29;20552;-58
2022/04/22 05:38:17;;;;;;;7.68;6.80;;;;;;;7.72;70.56;97372.75;4084897;29;20199;-56
2022/04/22 05:40:22;;;;;;;7.63;6.80;;;;;;;7.76;70.60;97361.06;4082141;29;20295;-58
2022/04/22 05:42:24;;;;;;;6.93;6.32;;;;;;;7.82;71.06;97364.66;4100756;28;20578;-59
2022/04/22 05:44:26;;;;;;;7.60;6.55;;;;;;;7.83;71.19;97366.31;4091831;29;20243;-57
2022/04/22 05:46:27;;;;;;;6.03;5.47;;;;;;;7.78;71.17;97366.25;4088890;28;20311;-59
2022/04/22 05:48:29;;;;;;;9.10;6.70;;;;;;;7.59;72.49;97375.91;4101364;28;20258;-56
2022/04/22 05:50:31;;;;;;;7.88;7.10;;;;;;;7.61;71.56;97374.56;4094997;29;20207;-57
2022/04/22 05:52:34;;;;;;;6.43;5.75;;;;;;;7.47;73.45;97383.41;4103085;28;20894;-58
2022/04/22 05:54:36;;;;;;;7.20;6.45;;;;;;;7.66;72.05;97376.50;4118373;28;20262;-60
2022/04/22 05:56:38;;;;;;;9.10;8.20;;;;;;;7.84;72.17;97373.41;4104408;28;20210;-57
2022/04/22 05:58:48;;;;;;;8.02;7.28;;;;;;;7.71;72.60;97379.28;4088071;28;20211;-57
2022/04/22 06:00:50;;;;;;;8.30;7.47;;;;;;;7.86;71.39;97371.22;4093851;29;20213;-60
2022/04/22 06:02:56;;;;;;;7.95;7.25;;;;;;;7.85;71.65;97366.84;4087569;29;20203;-57
2022/04/22 06:04:58;;;;;;;8.40;7.32;;;;;;;7.87;71.70;97367.41;4091880;29;20644;-57
2022/04/22 06:06:59;;;;;;;9.52;8.50;;;;;;;7.98;71.42;97369.13;4119931;28;20207;-57
2022/04/22 06:11:21;;;;;;;7.80;6.95;;;;;;;7.86;72.83;97360.31;4088555;29;21779;-60
2022/04/22 06:13:23;;;;;;;6.50;5.93;;;;;;;7.99;71.98;97357.16;4104472;28;20759;-57
2022/04/22 06:15:25;;;;;;;9.40;6.45;;;;;;;8.13;71.54;97361.06;4085946;29;20295;-57
2022/04/22 06:17:28;;;;;;;8.63;7.85;;;;;;;8.10;72.04;97356.94;4088512;29;20212;-59
2022/04/22 06:19:30;;;;;;;6.65;6.00;;;;;;;8.21;71.99;97352.44;4090946;28;20208;-57
2022/04/22 06:21:31;;;;;;;7.70;6.90;;;;;;;8.36;71.37;97349.81;4088048;28;20256;-58
2022/04/22 06:23:34;;;;;;;7.20;6.30;;;;;;;8.53;71.74;97351.25;4096187;29;20212;-58
2022/04/22 06:25:36;;;;;;;9.75;6.97;;;;;;;8.66;70.38;97349.94;4094002;29;20235;-58
2022/04/22 06:27:40;;;;;;;7.88;7.05;;;;;;;8.87;70.03;97351.66;4094515;28;20282;-57
2022/04/22 06:29:42;;;;;;;9.02;8.10;;;;;;;9.00;69.41;97340.22;4092407;29;20215;-58
2022/04/22 06:31:44;;;;;;;7.50;6.53;;;;;;;9.17;69.03;97352.59;4087438;29;20208;-56
2022/04/22 06:33:46;;;;;;;7.05;6.45;;;;;;;9.44;69.12;97341.41;4101860;28;20207;-56
2022/04/22 06:35:48;;;;;;;7.40;6.75;;;;;;;9.61;68.06;97340.06;4090699;29;20660;-55
2022/04/22 06:37:52;;;;;;;9.02;6.90;;;;;;;9.32;68.59;97344.41;4087829;29;20243;-56
2022/04/22 06:46:56;;;;;;;5.40;4.70;;;;;;;9.60;66.74;97340.31;4087104;28;20263;-56
2022/04/22 06:48:59;;;;;;;7.85;7.07;;;;;;;9.61;67.08;97336.53;4117607;28;20226;-57
2022/04/22 06:51:05;;;;;;;6.28;5.68;;;;;;;9.55;67.40;97332.16;4104812;28;20208;-56
2022/04/22 06:53:11;;;;;;;7.50;5.38;;;;;;;9.71;67.21;97331.06;4103482;28;20214;-56
2022/04/22 06:55:14;;;;;;;7.80;6.85;;;;;;;9.84;66.35;97331.34;4093991;29;20231;-57
2022/04/22 06:57:16;;;;;;;10.32;7.05;;;;;;;10.03;65.63;97331.59;4086412;29;20208;-56
2022/04/22 06:59:21;;;;;;;8.57;7.15;;;;;;;10.15;65.50;97324.75;4093308;29;20259;-56
2022/04/22 07:01:24;;;;;;;6.95;6.25;;;;;;;10.25;65.16;97332.09;4089200;28;20234;-57
2022/04/22 07:03:44;;;;;;;7.93;6.93;;;;;;;10.09;64.64;97333.25;4099420;28;20846;-56
2022/04/22 07:05:48;;;;;;;10.90;6.63;;;;;;;10.45;64.68;97326.59;4104782;28;20230;-55
2022/04/22 07:07:50;;;;;;;6.97;6.38;;;;;;;10.40;64.09;97340.28;4087410;29;20236;-56
2022/04/22 07:09:52;;;;;;;10.45;6.88;;;;;;;10.34;64.48;97339.47;4087771;28;20234;-56
2022/04/22 07:11:55;;;;;;;5.95;5.38;;;;;;;10.69;63.53;97333.88;4091689;28;20199;-57
2022/04/22 07:13:59;;;;;;;5.93;5.13;;;;;;;10.93;63.23;97335.72;4102040;28;20207;-55
2022/04/22 07:16:02;;;;;;;8.07;7.28;;;;;;;10.78;63.18;97333.03;4100741;28;20231;-56
2022/04/22 07:18:04;;;;;;;7.72;7.07;;;;;;;10.88;62.91;97340.38;4087975;29;20208;-56
2022/04/22 07:20:11;;;;;;;5.20;4.78;;;;;;;10.64;62.75;97335.81;4095098;29;20314;-57
2022/04/22 07:22:18;;;;;;;9.00;6.85;;;;;;;10.69;63.19;97327.63;4087197;28;20210;-56
2022/04/22 07:24:20;;;;;;;7.00;6.50;;;;;;;10.74;63.58;97335.81;4088673;29;20212;-56
2022/04/22 07:26:23;;;;;;;6.25;5.65;;;;;;;10.66;63.52;97339.09;4084762;29;20242;-56
2022/04/22 07:28:28;;;;;;;5.00;4.55;;;;;;;10.53;62.97;97334.22;4086614;28;20227;-57
2022/04/22 07:30:30;;;;;;;6.95;6.20;;;;;;;10.76;63.53;97339.06;4084332;28;20282;-54
2022/04/22 07:32:35;;;;;;;6.35;5.53;;;;;;;11.16;63.36;97332.28;4098700;28;21203;-53
2022/04/22 07:34:37;;;;;;;8.90;7.47;;;;;;;11.03;62.58;97335.66;4098597;28;20662;-55
2022/04/22 07:36:39;;;;;;;6.70;6.10;;;;;;;11.07;62.54;97339.47;4098700;28;20219;-56
2022/04/22 07:38:41;;;;;;;6.47;5.88;;;;;;;11.12;62.39;97338.63;4099507;28;20262;-55
2022/04/22 07:40:44;;;;;;;7.80;7.10;;;;;;;11.04;62.89;97336.47;4092407;28;20274;-56
2022/04/22 07:47:38;;;;;;;6.43;5.80;;;;;;;11.57;61.56;97333.66;4097171;28;20663;-55
2022/04/22 07:49:40;;;;;;;11.73;5.53;;;;;;;12.34;60.57;97336.31;4089493;29;20208;-56
2022/04/22 07:51:42;;;;;;;6.25;5.65;;;;;;;11.80;60.46;97335.72;4116898;28;20202;-55
2022/04/22 07:53:44;;;;;;;6.07;5.57;;;;;;;11.68;60.87;97337.19;4090412;28;20290;-55
2022/04/22 07:55:47;;;;;;;6.70;6.10;;;;;;;11.58;60.83;97342.75;4116579;28;20230;-56
2022/04/22 07:57:49;;;;;;;5.57;5.03;;;;;;;11.79;60.95;97339.56;4091542;29;20211;-56
2022/04/22 07:59:52;;;;;;;7.65;5.65;;;;;;;11.86;60.25;97340.06;4088400;29;20210;-56
2022/04/22 08:01:54;;;;;;;7.55;6.60;;;;;;;12.37;59.50;97340.41;4087770;29;20219;-58
2022/04/22 08:03:58;;;;;;;7.45;5.80;;;;;;;12.25;60.05;97338.03;4091638;28;20203;-54
2022/04/22 08:06:00;;;;;;;5.70;5.20;;;;;;;12.35;59.31;97332.44;4087272;29;20231;-53
2022/04/22 08:08:02;;;;;;;6.65;6.05;;;;;;;12.23;58.90;97348.47;4114985;28;20281;-55
2022/04/22 08:10:05;;;;;;;7.55;6.63;;;;;;;12.16;58.64;97350.75;4088223;29;20216;-56
2022/04/22 08:12:08;;;;;;;7.75;7.00;;;;;;;11.71;59.10;97348.38;4101057;28;20255;-54
2022/04/22 08:14:12;;;;;;;9.55;6.22;;;;;;;11.79;59.89;97345.06;4077360;29;20705;-54
2022/04/22 08:16:15;;;;;;;6.55;5.93;;;;;;;11.66;59.51;97342.97;4093109;29;20226;-55
2022/04/22 08:18:17;;;;;;;7.47;6.78;;;;;;;11.72;60.11;97347.28;4117839;28;20313;-54
2022/04/22 08:20:19;;;;;;;6.88;6.25;;;;;;;11.94;60.18;97346.84;4098904;28;20246;-54
2022/04/22 08:22:21;;;;;;;7.93;7.20;;;;;;;11.55;59.83;97341.34;4088936;29;20216;-55
2022/04/22 08:24:23;;;;;;;6.60;6.10;;;;;;;11.50;61.28;97335.91;4094053;28;20285;-55
2022/04/22 08:26:24;;;;;;;7.60;6.95;;;;;;;11.75;59.96;97335.75;4120746;28;20682;-54
2022/04/22 08:28:26;;;;;;;7.40;6.70;;;;;;;12.08;59.72;97334.09;4090873;29;20231;-54
2022/04/22 08:30:28;;;;;;;7.28;6.57;;;;;;;11.96;59.58;97339.97;4103697;28;20298;-55
2022/04/22 08:32:30;;;;;;;7.25;6.55;;;;;;;12.21;58.84;97337.00;4121015;28;20297;-55
2022/04/22 08:34:32;;;;;;;7.35;5.05;;;;;;;11.80;59.09;97335.72;4087854;29;21054;-55
2022/04/22 08:36:34;;;;;;;5.95;5.38;;;;;;;11.90;59.23;97334.81;4099051;28;21060;-54
2022/04/22 08:38:35;;;;;;;7.20;6.47;;;;;;;12.48;58.91;97331.78;4093132;29;20306;-55
2022/04/22 08:40:38;;;;;;;6.50;5.93;;;;;;;12.63;58.30;97333.53;4101450;28;20703;-53
2022/04/22 08:42:41;;;;;;;13.18;5.65;;;;;;;12.96;57.61;97333.41;4088840;28;20216;-54
2022/04/22 08:44:43;;;;;;;6.22;4.95;;;;;;;13.40;55.59;97338.59;4119741;28;20595;-54
2022/04/22 08:51:26;;;;;;;6.38;5.43;;;;;;;13.80;55.24;97336.06;4100614;28;20229;-54
2022/04/22 08:53:29;;;;;;;6.78;6.07;;;;;;;14.60;54.72;97320.06;4120569;28;20211;-54
2022/04/22 08:55:32;;;;;;;7.22;6.53;;;;;;;14.91;54.13;97321.09;4119815;28;20713;-54
2022/04/22 08:57:34;;;;;;;5.97;5.38;;;;;;;15.30;53.55;97319.41;4084803;28;20208;-53
2022/04/22 08:59:35;;;;;;;6.20;5.63;;;;;;;14.87;52.93;97320.91;4100583;28;20198;-53
2022/04/22 09:01:38;;;;;;;6.13;5.53;;;;;;;14.35;53.56;97329.63;4101847;28;20665;-53
2022/04/22 09:03:40;;;;;;;6.90;5.97;;;;;;;14.51;53.66;97325.44;4090611;29;20204;-53
2022/04/22 09:05:42;;;;;;;4.93;4.50;;;;;;;14.58;53.46;97323.13;4093009;28;20227;-53
2022/04/22 09:07:44;;;;;;;5.75;5.10;;;;;;;14.19;54.87;97331.03;4089970;29;21239;-53
2022/04/22 09:09:49;;;;;;;5.78;5.25;;;;;;;13.89;54.09;97320.50;4090051;28;20220;-53
2022/04/22 09:11:52;;;;;;;5.60;4.25;;;;;;;14.53;53.81;97312.22;4087714;29;20749;-54
2022/04/22 09:13:53;;;;;;;5.38;4.88;;;;;;;15.36;52.13;97298.13;4107501;28;20203;-53
2022/04/22 09:15:57;;;;;;;4.20;3.80;;;;;;;14.45;52.04;97307.44;4092988;29;20691;-53
2022/04/22 09:18:15;;;;;;;4.93;4.45;;;;;;;14.22;53.33;97318.59;4097474;29;20260;-52
2022/04/22 09:20:17;;;;;;;4.82;3.53;;;;;;;14.71;53.30;97316.00;4079938;29;20295;-53
2022/04/22 09:22:29;;;;;;;5.75;4.03;;;;;;;14.75;52.80;97306.81;4104011;28;20645;-54
2022/04/22 09:24:31;;;;;;;5.80;5.28;;;;;;;14.88;51.97;97300.50;4094006;29;20203;-57
2022/04/22 09:26:33;;;;;;;5.05;4.55;;;;;;;14.59;52.27;97297.25;4090849;28;20208;-57
2022/04/22 09:28:38;;;;;;;5.50;4.70;;;;;;;15.51;51.85;97293.03;4111957;28;20222;-56
2022/04/22 09:30:41;;;;;;;4.65;3.85;;;;;;;15.91;50.87;97291.25;4121702;28;20238;-54
2022/04/22 09:32:48;;;;;;;4.65;4.30;;;;;;;15.52;50.65;97299.38;4102636;28;20282;-55
2022/04/22 09:34:51;;;;;;;7.63;3.75;;;;;;;14.96;51.22;97288.75;4087982;29;20206;-55
2022/04/22 09:44:35;;;;;;;3.67;3.35;;;;;;;16.58;49.66;97266.03;4088529;28;20215;-54
2022/04/22 09:46:37;;;;;;;4.40;3.90;;;;;;;16.02;50.73;97265.84;4092985;28;20203;-52
2022/04/22 09:49:00;;;;;;;4.78;4.38;;;;;;;16.29;48.89;97268.44;4099979;28;20247;-54
2022/04/22 09:51:01;;;;;;;4.05;3.70;;;;;;;15.95;49.32;97259.16;4119249;28;20205;-57
2022/04/22 09:53:03;;;;;;;4.78;3.63;;;;;;;16.16;48.22;97247.25;4078473;29;21079;-54
2022/04/22 09:55:07;;;;;;;4.70;4.28;;;;;;;16.27;48.68;97251.38;4089384;29;20631;-55
2022/04/22 09:57:10;;;;;;;5.15;3.75;;;;;;;17.09;48.42;97264.22;4088790;29;20693;-53
2022/04/22 09:59:26;;;;;;;4.68;4.13;;;;;;;16.42;48.67;97256.53;4090362;29;20215;-54
2022/04/22 10:01:28;;;;;;;5.10;4.65;;;;;;;16.56;49.01;97248.16;4093618;29;20207;-52
2022/04/22 10:03:51;;;;;;;3.45;3.08;;;;;;;17.08;48.54;97250.72;4109346;28;20203;-54
2022/04/22 10:05:54;;;;;;;9.48;5.25;;;;;;;17.46;47.25;97257.31;4090229;29;20592;-52
2022/04/22 10:07:57;;;;;;;4.63;4.18;;;;;;;17.16;47.84;97249.91;4103572;28;20206;-52
2022/04/22 10:10:02;;;;;;;4.10;3.60;;;;;;;17.02;46.87;97236.25;4095630;28;20289;-52
2022/04/22 10:12:08;;;;;;;9.05;4.97;;;;;;;17.38;46.81;97238.78;4086296;28;20208;-54
2022/04/22 10:14:10;;;;;;;4.80;4.18;;;;;;;16.76;46.95;97231.78;4100424;28;20266;-52
2022/04/22 10:16:13;;;;;;;4.07;3.67;;;;;;;16.80;46.63;97226.44;4101088;28;20615;-52
2022/04/22 10:18:15;;;;;;;4.18;3.75;;;;;;;16.72;47.59;97230.81;4101290;28;20215;-53
2022/04/22 10:20:19;;;;;;;5.20;4.70;;;;;;;16.32;48.38;97226.41;4100510;28;20230;-52
2022/04/22 10:22:21;;;;;;;3.67;3.28;;;;;;;16.78;47.72;97221.25;4069620;29;20335;-52
2022/04/22 10:24:23;;;;;;;4.05;3.63;;;;;;;17.46;46.84;97218.59;4116096;28;20214;-53
2022/04/22 10:26:26;;;;;;;4.30;3.63;;;;;;;17.39;46.66;97218.28;4088574;29;20227;-55
2022/04/22 10:28:29;;;;;;;4.32;3.92;;;;;;;17.50;45.73;97214.03;4101090;28;20214;-52
2022/04/22 10:30:32;;;;;;;3.60;3.10;;;;;;;17.41;46.23;97210.44;4088649;29;20274;-53
2022/04/22 10:32:35;;;;;;;3.78;3.17;;;;;;;17.53;46.95;97202.31;4087534;28;20637;-54
2022/04/22 10:34:41;;;;;;;3.60;3.20;;;;;;;17.98;46.48;97209.09;4088712;28;20216;-53
2022/04/22 10:36:44;;;;;;;4.05;3.65;;;;;;;17.87;45.42;97218.88;4119207;28;20261;-52
2022/04/22 10:38:46;;;;;;;4.20;3.63;;;;;;;18.06;45.55;97206.28;4078342;29;20687;-52